Time;durP1;ratioP1;P1;durP2;ratioP2;P2;SDS_P1;SDS_P2;PMS_P1;PMS_P2;Temp;Humidity;BMP_temperature;BMP_pressure;BME280_temperature;BME280_humidity;BME280_pressure;Samples;Min_cycle;Max_cycle;Signal;HPM_P1;HPM_P2
2022/04/15 00:00:38;;;;;;;12.18;5.35;;;6.10;99.90;;;;;;5113211;28;20035;-79
2022/04/15 00:03:07;;;;;;;9.57;5.38;;;6.10;99.90;;;;;;5115627;28;20032;-79
2022/04/15 00:05:36;;;;;;;14.55;4.97;;;6.10;99.90;;;;;;5114333;28;20112;-79
2022/04/15 00:08:07;;;;;;;13.30;6.75;;;6.10;99.90;;;;;;5114484;28;20040;-79
2022/04/15 00:10:34;;;;;;;11.38;6.03;;;6.10;99.90;;;;;;5113992;28;20498;-79
2022/04/15 00:13:01;;;;;;;11.27;5.60;;;6.10;99.90;;;;;;5115243;28;20092;-79
2022/04/15 00:15:27;;;;;;;14.27;5.43;;;6.10;99.90;;;;;;5112915;28;20047;-79
2022/04/15 00:17:54;;;;;;;9.27;5.55;;;6.00;99.90;;;;;;5115353;28;20055;-79
2022/04/15 00:20:20;;;;;;;8.43;4.80;;;6.00;99.90;;;;;;5114925;28;20039;-79
2022/04/15 00:22:46;;;;;;;11.85;5.75;;;6.00;99.90;;;;;;5113126;28;20551;-79
2022/04/15 00:25:12;;;;;;;13.18;6.45;;;6.00;99.90;;;;;;5113660;28;20031;-79
2022/04/15 00:27:40;;;;;;;11.63;6.03;;;5.90;99.90;;;;;;5114897;28;20509;-79
2022/04/15 00:30:09;;;;;;;9.52;6.05;;;5.90;99.90;;;;;;5113819;28;20051;-79
2022/04/15 00:32:34;;;;;;;12.20;6.55;;;5.80;99.90;;;;;;5113759;28;20043;-79
2022/04/15 00:35:00;;;;;;;16.27;7.30;;;5.80;99.90;;;;;;5114503;28;20488;-79
2022/04/15 00:37:26;;;;;;;13.77;5.88;;;5.80;99.90;;;;;;5113635;28;20048;-79
2022/04/15 00:39:52;;;;;;;13.80;6.38;;;5.80;99.90;;;;;;5114454;28;20089;-79
2022/04/15 00:42:19;;;;;;;14.73;7.45;;;5.80;99.90;;;;;;5112522;28;20475;-79
2022/04/15 00:44:45;;;;;;;8.48;5.15;;;5.80;99.90;;;;;;5113420;28;20047;-78
2022/04/15 00:47:37;;;;;;;17.52;7.40;;;5.80;99.90;;;;;;5113027;28;20047;-78
2022/04/15 00:50:04;;;;;;;7.90;5.70;;;5.80;99.90;;;;;;5113255;28;20486;-78
2022/04/15 00:52:43;;;;;;;8.50;5.10;;;5.70;99.90;;;;;;5096296;28;20048;-78
2022/04/15 00:55:10;;;;;;;11.20;6.18;;;5.70;99.90;;;;;;5112918;28;20506;-78
2022/04/15 00:57:41;;;;;;;11.20;5.30;;;5.70;99.90;;;;;;5112263;28;20050;-78
2022/04/15 01:00:08;;;;;;;12.90;6.63;;;5.70;99.90;;;;;;5112865;28;20056;-78
2022/04/15 01:02:35;;;;;;;11.43;5.97;;;5.70;99.90;;;;;;5114480;28;20051;-78
2022/04/15 01:05:07;;;;;;;12.65;7.22;;;5.80;99.90;;;;;;5113291;28;20044;-78
2022/04/15 01:07:39;;;;;;;12.02;5.95;;;5.80;99.90;;;;;;5113334;28;20478;-78
2022/04/15 01:10:11;;;;;;;10.95;5.55;;;5.90;99.90;;;;;;5113650;28;20053;-78
2022/04/15 01:12:39;;;;;;;11.90;5.68;;;5.90;99.90;;;;;;5129321;27;20130;-78
2022/04/15 01:15:08;;;;;;;17.65;6.03;;;5.90;99.90;;;;;;5112585;28;20051;-78
2022/04/15 01:17:34;;;;;;;12.18;6.25;;;6.00;99.90;;;;;;5112039;28;20122;-79
2022/04/15 01:20:05;;;;;;;10.00;5.72;;;6.00;99.90;;;;;;5113674;28;20168;-78
2022/04/15 01:22:43;;;;;;;13.65;6.68;;;6.10;99.90;;;;;;5113108;28;20047;-78
2022/04/15 01:25:14;;;;;;;9.45;6.35;;;6.10;99.90;;;;;;5112911;28;20517;-78
2022/04/15 01:27:47;;;;;;;12.90;7.07;;;6.10;99.90;;;;;;5112725;28;20075;-78
2022/04/15 01:30:22;;;;;;;14.30;7.57;;;6.20;99.90;;;;;;5113718;28;20035;-78
2022/04/15 01:32:49;;;;;;;15.15;7.25;;;6.20;99.90;;;;;;5111899;28;20128;-78
2022/04/15 01:35:17;;;;;;;11.38;6.88;;;6.30;99.90;;;;;;5113909;28;20062;-78
2022/04/15 01:37:44;;;;;;;12.18;7.10;;;6.30;99.90;;;;;;5112979;28;20039;-78
2022/04/15 01:40:12;;;;;;;14.70;7.97;;;6.30;99.90;;;;;;5112723;28;20482;-78
2022/04/15 01:42:39;;;;;;;12.60;7.25;;;6.40;99.90;;;;;;5112353;28;20054;-78
2022/04/15 01:45:05;;;;;;;19.80;7.65;;;6.40;99.90;;;;;;5113689;28;20528;-78
2022/04/15 01:47:31;;;;;;;11.48;6.93;;;6.50;99.90;;;;;;5111882;28;20134;-78
2022/04/15 01:49:57;;;;;;;12.30;6.75;;;6.50;99.90;;;;;;5116118;28;20139;-78
2022/04/15 01:52:23;;;;;;;14.82;7.10;;;6.50;99.90;;;;;;5117761;28;20040;-78
2022/04/15 01:54:49;;;;;;;12.20;7.28;;;6.60;99.90;;;;;;5117180;28;20450;-78
2022/04/15 01:57:15;;;;;;;8.93;6.93;;;6.60;99.90;;;;;;5117600;28;20043;-78
2022/04/15 01:59:41;;;;;;;11.93;6.32;;;6.60;99.90;;;;;;5115465;28;20051;-78
2022/04/15 02:02:07;;;;;;;18.70;7.95;;;6.70;99.90;;;;;;5117568;28;20052;-78
2022/04/15 02:04:34;;;;;;;16.20;7.18;;;6.70;99.90;;;;;;5117707;28;20039;-78
2022/04/15 02:07:00;;;;;;;9.70;6.15;;;6.70;99.90;;;;;;5116848;28;20051;-78
2022/04/15 02:09:26;;;;;;;15.20;6.72;;;6.80;99.90;;;;;;5117527;28;20444;-78
2022/04/15 02:11:52;;;;;;;11.60;6.38;;;6.80;99.90;;;;;;5117360;28;20119;-78
2022/04/15 02:14:19;;;;;;;16.90;7.10;;;6.90;99.90;;;;;;5116720;28;20498;-78
2022/04/15 02:16:46;;;;;;;14.38;6.22;;;6.90;99.90;;;;;;5116491;28;20043;-78
2022/04/15 02:19:13;;;;;;;15.07;7.68;;;6.90;99.90;;;;;;5117275;28;20047;-78
2022/04/15 02:21:39;;;;;;;11.55;6.65;;;7.00;99.90;;;;;;5116409;28;20039;-79
2022/04/15 02:24:05;;;;;;;11.93;6.65;;;7.00;99.90;;;;;;5099232;28;20048;-78
2022/04/15 02:26:31;;;;;;;9.20;5.60;;;7.00;99.90;;;;;;5115889;28;20127;-79
2022/04/15 02:28:57;;;;;;;13.68;6.53;;;7.10;99.90;;;;;;5102229;28;20142;-78
2022/04/15 02:31:23;;;;;;;10.48;5.88;;;7.10;99.90;;;;;;5115653;28;20100;-79
2022/04/15 02:33:50;;;;;;;10.77;6.10;;;7.10;99.90;;;;;;5132970;27;20047;-78
2022/04/15 02:36:16;;;;;;;8.48;5.30;;;7.10;99.90;;;;;;5119658;27;20048;-78
2022/04/15 02:38:42;;;;;;;10.80;5.95;;;7.20;99.90;;;;;;5112872;28;20044;-78
2022/04/15 02:41:09;;;;;;;8.98;5.75;;;7.20;99.90;;;;;;5114977;28;20379;-78
2022/04/15 02:43:37;;;;;;;17.50;6.65;;;7.20;99.90;;;;;;5115931;28;20035;-78
2022/04/15 02:46:06;;;;;;;11.55;5.82;;;7.20;99.90;;;;;;5116018;28;20088;-78
2022/04/15 02:48:32;;;;;;;13.45;7.07;;;7.20;99.90;;;;;;5115440;28;20047;-78
2022/04/15 02:50:59;;;;;;;14.30;6.32;;;7.20;99.90;;;;;;5115723;28;20406;-78
2022/04/15 02:53:25;;;;;;;15.75;7.75;;;7.20;99.90;;;;;;5116358;28;20110;-78
2022/04/15 02:55:52;;;;;;;8.90;6.50;;;7.30;99.90;;;;;;5116117;27;20042;-78
2022/04/15 02:58:18;;;;;;;12.77;7.75;;;7.30;99.90;;;;;;5098041;28;20043;-78
2022/04/15 03:00:45;;;;;;;14.95;7.00;;;7.30;99.90;;;;;;5115204;28;20054;-78
2022/04/15 03:03:11;;;;;;;12.32;6.80;;;7.30;99.90;;;;;;5114234;28;20472;-78
2022/04/15 03:05:40;;;;;;;18.23;7.30;;;7.40;99.90;;;;;;5116457;28;20051;-78
2022/04/15 03:08:07;;;;;;;12.23;7.25;;;7.40;99.90;;;;;;5116444;28;20224;-78
2022/04/15 03:10:33;;;;;;;23.20;8.75;;;7.40;99.90;;;;;;5115600;27;20505;-78
2022/04/15 03:12:59;;;;;;;17.88;6.05;;;7.40;99.90;;;;;;5114794;28;20048;-78
2022/04/15 03:15:25;;;;;;;12.30;6.55;;;7.50;99.90;;;;;;5115141;28;20548;-78
2022/04/15 03:17:51;;;;;;;13.57;6.85;;;7.50;99.90;;;;;;5114140;28;20047;-78
2022/04/15 03:20:17;;;;;;;13.77;5.82;;;7.50;99.90;;;;;;5132393;27;20113;-78
2022/04/15 03:22:44;;;;;;;13.82;6.30;;;7.60;99.90;;;;;;5114924;28;20040;-78
2022/04/15 03:25:17;;;;;;;13.38;5.80;;;7.60;99.90;;;;;;5113814;28;20100;-78
2022/04/15 03:27:43;;;;;;;12.82;5.60;;;7.60;99.90;;;;;;5116365;28;20051;-78
2022/04/15 03:30:09;;;;;;;16.75;6.13;;;7.60;99.90;;;;;;5114441;28;20040;-78
2022/04/15 03:32:50;;;;;;;11.80;5.82;;;7.70;99.90;;;;;;5113617;28;20050;-78
2022/04/15 03:35:20;;;;;;;12.75;5.45;;;7.70;99.90;;;;;;5115817;28;20118;-79
2022/04/15 03:37:51;;;;;;;7.38;5.45;;;7.70;99.90;;;;;;5115950;27;20491;-78
2022/04/15 03:40:19;;;;;;;14.00;5.38;;;7.80;99.90;;;;;;5114840;28;20062;-78
2022/04/15 03:42:54;;;;;;;21.73;6.93;;;7.80;99.90;;;;;;5115643;28;20040;-78
2022/04/15 03:45:22;;;;;;;11.60;5.50;;;7.90;99.90;;;;;;5113352;28;20626;-78
2022/04/15 03:47:54;;;;;;;15.10;6.45;;;7.90;99.90;;;;;;5114807;28;20051;-78
2022/04/15 03:50:21;;;;;;;15.90;6.07;;;7.90;99.90;;;;;;5113892;28;20047;-78
2022/04/15 03:52:47;;;;;;;10.38;5.70;;;7.90;99.90;;;;;;5114466;28;20047;-78
2022/04/15 03:55:21;;;;;;;15.13;6.72;;;7.90;99.90;;;;;;5115742;28;20040;-78
2022/04/15 03:57:48;;;;;;;17.88;6.53;;;8.00;99.90;;;;;;5114028;28;20047;-78
2022/04/15 04:00:19;;;;;;;12.52;7.63;;;8.00;99.90;;;;;;5114716;28;20051;-78
2022/04/15 04:02:47;;;;;;;13.93;8.85;;;8.00;99.90;;;;;;5115434;28;20086;-78
2022/04/15 04:05:13;;;;;;;15.63;9.52;;;8.00;99.90;;;;;;5115506;28;20044;-78
2022/04/15 04:07:40;;;;;;;16.08;9.30;;;8.00;99.90;;;;;;5114275;28;20031;-78
2022/04/15 04:10:06;;;;;;;14.85;9.88;;;8.00;99.90;;;;;;5114854;28;20043;-78
2022/04/15 04:12:36;;;;;;;18.33;10.65;;;8.00;99.90;;;;;;5113665;28;20105;-78
2022/04/15 04:15:03;;;;;;;19.00;11.27;;;8.00;99.90;;;;;;5112919;28;20119;-78
2022/04/15 04:17:29;;;;;;;16.92;10.63;;;8.00;99.90;;;;;;5115044;28;20532;-78
2022/04/15 04:19:56;;;;;;;14.07;11.68;;;8.00;99.90;;;;;;5096981;28;20067;-78
2022/04/15 04:22:26;;;;;;;14.68;9.93;;;8.00;99.90;;;;;;5112708;28;20410;-78
2022/04/15 04:24:52;;;;;;;14.63;9.85;;;8.00;99.90;;;;;;5113810;28;20123;-78
2022/04/15 04:27:18;;;;;;;17.13;10.60;;;7.90;99.90;;;;;;5113865;28;20194;-78
2022/04/15 04:29:43;;;;;;;17.38;10.60;;;7.90;99.90;;;;;;5113887;28;20082;-78
2022/04/15 04:32:09;;;;;;;16.75;10.55;;;7.90;99.90;;;;;;5114345;28;20543;-78
2022/04/15 04:34:35;;;;;;;13.68;9.02;;;7.90;99.90;;;;;;5113678;28;20032;-79
2022/04/15 04:37:01;;;;;;;12.25;7.82;;;7.90;99.90;;;;;;5115375;28;20129;-79
2022/04/15 04:39:29;;;;;;;11.70;7.22;;;7.90;99.90;;;;;;5112771;28;20052;-76
2022/04/15 04:41:56;;;;;;;11.25;6.90;;;7.80;99.90;;;;;;5112610;28;20088;-77
2022/04/15 04:44:22;;;;;;;9.73;7.40;;;7.80;99.90;;;;;;5112872;28;20050;-77
2022/04/15 04:46:49;;;;;;;11.48;6.40;;;7.80;99.90;;;;;;5113614;28;20055;-76
2022/04/15 04:49:18;;;;;;;7.65;5.88;;;7.70;99.90;;;;;;5113729;28;20051;-76
2022/04/15 04:51:44;;;;;;;10.27;6.15;;;7.70;99.90;;;;;;5114132;28;20062;-76
2022/04/15 04:54:11;;;;;;;8.50;5.95;;;7.70;99.90;;;;;;5094783;28;20047;-76
2022/04/15 04:56:37;;;;;;;8.20;5.35;;;7.70;99.90;;;;;;5113082;28;20077;-75
2022/04/15 04:59:03;;;;;;;7.40;5.18;;;7.70;99.90;;;;;;5113402;28;20043;-75
2022/04/15 05:01:29;;;;;;;10.63;5.90;;;7.70;99.90;;;;;;5113877;28;20032;-76
2022/04/15 05:03:54;;;;;;;6.85;4.90;;;7.60;99.90;;;;;;5112336;28;20048;-75
2022/04/15 05:06:26;;;;;;;5.25;4.75;;;7.70;99.90;;;;;;5113125;28;20055;-75
2022/04/15 05:08:52;;;;;;;9.13;5.65;;;7.60;99.90;;;;;;5113284;28;20047;-76
2022/04/15 05:11:18;;;;;;;8.50;5.50;;;7.60;99.90;;;;;;5112278;28;20043;-75
2022/04/15 05:13:44;;;;;;;7.97;4.63;;;7.60;99.90;;;;;;5112864;28;20086;-76
2022/04/15 05:16:10;;;;;;;5.97;4.82;;;7.60;99.90;;;;;;5113469;28;20036;-75
2022/04/15 05:18:35;;;;;;;7.47;5.22;;;7.60;99.90;;;;;;5112064;28;20495;-75
2022/04/15 05:21:02;;;;;;;8.27;4.95;;;7.60;99.90;;;;;;5128108;27;20082;-75
2022/04/15 05:23:28;;;;;;;8.25;4.35;;;7.60;99.90;;;;;;5112878;28;20371;-75
2022/04/15 05:25:53;;;;;;;7.13;4.90;;;7.60;99.90;;;;;;5112180;28;20051;-75
2022/04/15 05:28:19;;;;;;;8.15;5.20;;;7.60;99.90;;;;;;5112911;28;20043;-75
2022/04/15 05:30:45;;;;;;;6.80;4.60;;;7.60;99.90;;;;;;5112712;28;20126;-75
2022/04/15 05:33:11;;;;;;;5.10;4.18;;;7.60;99.90;;;;;;5112053;28;20047;-75
2022/04/15 05:35:36;;;;;;;4.65;4.20;;;7.60;99.90;;;;;;5095423;28;20483;-74
2022/04/15 05:38:03;;;;;;;7.45;4.28;;;7.70;99.90;;;;;;5111717;28;20043;-75
2022/04/15 05:40:29;;;;;;;7.03;4.47;;;7.60;99.90;;;;;;5095229;28;20168;-74
2022/04/15 05:42:55;;;;;;;5.90;3.90;;;7.70;99.90;;;;;;5112330;28;20048;-75
2022/04/15 05:45:21;;;;;;;7.43;3.72;;;7.70;99.90;;;;;;5111477;28;20100;-74
2022/04/15 05:47:47;;;;;;;5.07;3.90;;;7.70;99.90;;;;;;5110307;28;20134;-75
2022/04/15 05:50:12;;;;;;;5.22;3.95;;;7.60;99.90;;;;;;5111712;28;20058;-75
2022/04/15 05:52:38;;;;;;;11.60;3.13;;;7.60;99.90;;;;;;5108139;28;20105;-75
2022/04/15 05:55:05;;;;;;;4.75;3.33;;;7.60;99.90;;;;;;5112696;28;20452;-75
2022/04/15 05:57:30;;;;;;;7.57;3.60;;;7.60;99.90;;;;;;5112166;28;20043;-75
2022/04/15 05:59:56;;;;;;;4.15;3.08;;;7.70;99.90;;;;;;5112390;28;20503;-76
2022/04/15 06:02:24;;;;;;;3.28;2.90;;;7.60;99.90;;;;;;5113144;28;20558;-76
2022/04/15 06:04:50;;;;;;;4.03;2.60;;;7.60;99.90;;;;;;5112092;28;20126;-77
2022/04/15 06:07:16;;;;;;;3.20;2.80;;;7.60;99.90;;;;;;5112316;28;20111;-77
2022/04/15 06:09:41;;;;;;;2.42;2.00;;;7.60;99.90;;;;;;5112976;28;20053;-76
2022/04/15 06:12:08;;;;;;;5.40;2.30;;;7.50;99.90;;;;;;5112020;28;20043;-77
2022/04/15 06:14:36;;;;;;;5.85;1.63;;;7.50;99.90;;;;;;5112366;28;20044;-76
2022/04/15 06:17:03;;;;;;;2.10;1.85;;;7.50;99.90;;;;;;5113452;28;20490;-77
2022/04/15 06:19:28;;;;;;;4.55;2.30;;;7.50;99.90;;;;;;5112897;28;20105;-77
2022/04/15 06:21:54;;;;;;;5.07;2.40;;;7.50;99.90;;;;;;5111276;28;20040;-77
2022/04/15 06:24:20;;;;;;;3.63;2.00;;;7.50;99.90;;;;;;5113091;28;20040;-77
2022/04/15 06:26:46;;;;;;;5.43;2.20;;;7.50;99.90;;;;;;5111520;28;20043;-77
2022/04/15 06:29:12;;;;;;;3.60;2.22;;;7.50;99.90;;;;;;5112660;28;20049;-76
2022/04/15 06:31:38;;;;;;;2.58;2.08;;;7.50;99.90;;;;;;5113273;28;20032;-76
2022/04/15 06:34:04;;;;;;;2.80;2.60;;;7.40;99.90;;;;;;5112534;28;20040;-76
2022/04/15 06:36:29;;;;;;;3.75;2.53;;;7.40;99.90;;;;;;5115775;28;20099;-77
2022/04/15 06:38:55;;;;;;;3.55;3.25;;;7.40;99.90;;;;;;5116368;28;20040;-77
2022/04/15 06:41:21;;;;;;;5.47;3.20;;;7.40;99.90;;;;;;5115989;28;20092;-77
2022/04/15 06:43:47;;;;;;;5.10;3.70;;;7.40;99.90;;;;;;5116668;28;20044;-77
2022/04/15 06:46:13;;;;;;;6.78;3.88;;;7.40;99.90;;;;;;5116829;28;20127;-77
2022/04/15 06:48:38;;;;;;;7.15;4.70;;;7.30;99.90;;;;;;5123572;27;20044;-77
2022/04/15 06:51:04;;;;;;;7.43;4.03;;;7.40;99.90;;;;;;5096271;28;20079;-77
2022/04/15 06:53:30;;;;;;;8.65;4.68;;;7.40;99.90;;;;;;5112012;28;20368;-77
2022/04/15 06:55:57;;;;;;;4.63;4.15;;;7.40;99.90;;;;;;5115448;28;20079;-77
2022/04/15 06:58:22;;;;;;;5.85;4.85;;;7.40;99.90;;;;;;5116555;28;20051;-77
2022/04/15 07:00:48;;;;;;;5.13;4.63;;;7.40;99.90;;;;;;5116285;28;20043;-77
2022/04/15 07:03:15;;;;;;;8.18;5.55;;;7.40;99.90;;;;;;5115463;28;20067;-77
2022/04/15 07:05:42;;;;;;;9.45;5.70;;;7.40;99.90;;;;;;5116070;28;20050;-77
2022/04/15 07:08:09;;;;;;;6.28;5.25;;;7.50;99.90;;;;;;5115938;28;20043;-77
2022/04/15 07:10:37;;;;;;;6.72;5.47;;;7.50;99.90;;;;;;5114094;28;20425;-77
2022/04/15 07:13:03;;;;;;;7.63;5.25;;;7.60;99.90;;;;;;5116439;28;20097;-77
2022/04/15 07:15:29;;;;;;;10.13;6.07;;;7.60;99.90;;;;;;5115338;28;20043;-77
2022/04/15 07:17:56;;;;;;;10.30;6.63;;;7.60;99.90;;;;;;5115548;28;20437;-77
2022/04/15 07:20:22;;;;;;;9.57;6.88;;;7.70;99.90;;;;;;5116326;28;20104;-77
2022/04/15 07:22:57;;;;;;;8.30;6.32;;;7.70;99.90;;;;;;5114973;28;20118;-77
2022/04/15 07:25:24;;;;;;;7.35;6.43;;;7.70;99.90;;;;;;5114387;28;20043;-77
2022/04/15 07:27:50;;;;;;;8.77;6.25;;;7.80;99.90;;;;;;5114730;28;20479;-77
2022/04/15 07:30:17;;;;;;;9.23;5.95;;;7.80;99.90;;;;;;5115632;27;20071;-77
2022/04/15 07:32:44;;;;;;;13.75;7.13;;;7.80;99.90;;;;;;5115857;28;20055;-77
2022/04/15 07:35:10;;;;;;;7.97;6.97;;;7.90;99.90;;;;;;5114813;28;20048;-77
2022/04/15 07:37:36;;;;;;;11.45;7.50;;;7.90;99.90;;;;;;5114334;28;20431;-77
2022/04/15 07:40:02;;;;;;;13.05;8.27;;;7.90;99.90;;;;;;5115978;28;20039;-77
2022/04/15 07:42:28;;;;;;;9.52;7.80;;;8.00;99.90;;;;;;5114854;28;20047;-77
2022/04/15 07:44:54;;;;;;;11.32;8.05;;;8.00;99.90;;;;;;5113119;28;20036;-77
2022/04/15 07:47:20;;;;;;;12.63;7.50;;;8.10;99.90;;;;;;5114306;28;20046;-77
2022/04/15 07:49:46;;;;;;;9.68;7.22;;;8.20;99.90;;;;;;5115585;28;20417;-76
2022/04/15 07:52:12;;;;;;;14.20;8.13;;;8.30;99.90;;;;;;5114810;28;20040;-75
2022/04/15 07:54:37;;;;;;;13.35;8.73;;;8.30;99.90;;;;;;5114501;28;20047;-74
2022/04/15 07:57:03;;;;;;;11.07;7.28;;;8.50;99.90;;;;;;5115775;28;20044;-75
2022/04/15 07:59:29;;;;;;;16.15;8.43;;;8.60;99.90;;;;;;5113408;28;20090;-76
2022/04/15 08:01:56;;;;;;;11.50;7.85;;;8.70;99.90;;;;;;5115609;28;20063;-76
2022/04/15 08:04:22;;;;;;;12.38;8.15;;;8.70;99.90;;;;;;5115632;28;20040;-77
2022/04/15 08:06:48;;;;;;;13.98;8.25;;;8.80;99.90;;;;;;5114518;28;20483;-76
2022/04/15 08:09:14;;;;;;;11.95;7.47;;;8.80;99.90;;;;;;5113979;28;20105;-75
2022/04/15 08:11:40;;;;;;;11.30;7.85;;;8.80;99.90;;;;;;5096892;28;20044;-76
2022/04/15 08:14:05;;;;;;;11.05;6.60;;;8.80;99.90;;;;;;5113076;28;20047;-76
2022/04/15 08:16:31;;;;;;;9.25;5.20;;;8.90;99.90;;;;;;5114050;28;20040;-76
2022/04/15 08:18:57;;;;;;;15.68;7.70;;;8.90;99.90;;;;;;5113908;28;20048;-75
2022/04/15 08:21:23;;;;;;;9.70;6.30;;;8.90;99.90;;;;;;5114430;28;20035;-75
2022/04/15 08:23:50;;;;;;;12.43;6.72;;;9.00;99.90;;;;;;5115120;28;20044;-75
2022/04/15 08:26:15;;;;;;;8.27;4.95;;;9.00;99.90;;;;;;5114933;28;20054;-75
2022/04/15 08:28:41;;;;;;;10.05;5.65;;;9.00;99.90;;;;;;5114342;28;20035;-76
2022/04/15 08:31:08;;;;;;;13.10;5.65;;;9.00;99.90;;;;;;5115008;28;20402;-76
2022/04/15 08:33:37;;;;;;;10.75;6.13;;;9.10;99.90;;;;;;5112948;28;20474;-76
2022/04/15 08:36:04;;;;;;;10.93;5.45;;;9.10;99.90;;;;;;5113949;28;20086;-76
2022/04/15 08:38:30;;;;;;;10.90;6.68;;;9.20;99.90;;;;;;5113741;28;20160;-76
2022/04/15 08:40:58;;;;;;;15.18;6.65;;;9.30;99.90;;;;;;5112872;28;20060;-76
2022/04/15 08:43:29;;;;;;;7.22;5.20;;;9.40;99.90;;;;;;5113385;28;20483;-77
2022/04/15 08:45:55;;;;;;;9.88;5.10;;;9.50;99.90;;;;;;5114920;28;20454;-77
2022/04/15 08:48:23;;;;;;;10.77;6.25;;;9.60;99.90;;;;;;5113772;28;20122;-77
2022/04/15 08:50:50;;;;;;;9.27;4.70;;;9.70;99.90;;;;;;5112988;28;20047;-76
2022/04/15 08:53:18;;;;;;;15.90;6.55;;;9.90;99.90;;;;;;5114339;28;20054;-76
2022/04/15 08:55:44;;;;;;;14.73;5.22;;;10.00;99.90;;;;;;5113810;28;20040;-76
2022/04/15 08:58:10;;;;;;;11.00;5.35;;;10.10;99.90;;;;;;5079428;28;20126;-76
2022/04/15 09:00:36;;;;;;;9.20;4.03;;;10.20;99.90;;;;;;5114430;28;20035;-75
2022/04/15 09:03:03;;;;;;;8.55;4.63;;;10.20;99.90;;;;;;5112502;28;20411;-75
2022/04/15 09:05:29;;;;;;;13.57;5.15;;;10.20;99.90;;;;;;5114322;28;20475;-75
2022/04/15 09:08:06;;;;;;;14.63;4.55;;;10.40;99.90;;;;;;5114360;28;20054;-75
2022/04/15 09:10:33;;;;;;;11.63;5.10;;;10.50;99.90;;;;;;5095257;28;20048;-75
2022/04/15 09:13:01;;;;;;;17.55;4.85;;;10.60;99.90;;;;;;5112869;28;20050;-75
2022/04/15 09:15:26;;;;;;;10.40;4.43;;;10.70;99.90;;;;;;5113304;28;20093;-76
2022/04/15 09:17:54;;;;;;;9.65;5.05;;;10.70;99.90;;;;;;5111943;28;20082;-75
2022/04/15 09:20:21;;;;;;;13.63;4.50;;;10.70;99.90;;;;;;5113062;28;20136;-75
2022/04/15 09:22:52;;;;;;;11.15;5.30;;;10.60;99.90;;;;;;5113397;28;20059;-75
2022/04/15 09:25:26;;;;;;;7.57;3.97;;;10.60;99.90;;;;;;5114421;28;20051;-74
2022/04/15 09:27:57;;;;;;;8.30;3.92;;;10.60;99.90;;;;;;5113996;28;20044;-75
2022/04/15 09:30:39;;;;;;;8.15;4.18;;;10.60;99.90;;;;;;5111930;28;20043;-75
2022/04/15 09:33:05;;;;;;;7.35;4.25;;;10.80;99.90;;;;;;5114320;28;20081;-75
2022/04/15 09:35:31;;;;;;;6.20;3.67;;;10.90;99.90;;;;;;5113900;28;20052;-75
2022/04/15 09:38:05;;;;;;;8.73;3.92;;;11.20;99.90;;;;;;5113159;28;20047;-76
2022/04/15 09:40:35;;;;;;;9.43;3.90;;;11.30;99.90;;;;;;5095948;28;20048;-76
2022/04/15 09:43:04;;;;;;;9.02;3.67;;;11.50;99.90;;;;;;5096238;28;20487;-74
2022/04/15 09:45:35;;;;;;;7.30;4.20;;;11.40;99.90;;;;;;5111736;28;20049;-74
2022/04/15 09:48:08;;;;;;;6.30;3.75;;;11.40;99.90;;;;;;5112811;28;20069;-76
2022/04/15 09:50:42;;;;;;;6.90;4.05;;;11.30;99.90;;;;;;5113704;28;20056;-75
2022/04/15 09:53:16;;;;;;;7.07;4.47;;;11.00;99.90;;;;;;5113054;28;20036;-76
2022/04/15 09:55:46;;;;;;;8.00;4.57;;;10.80;99.90;;;;;;5112492;28;20043;-76
2022/04/15 09:58:17;;;;;;;6.63;3.60;;;10.70;99.90;;;;;;5113272;28;20511;-77
2022/04/15 10:00:48;;;;;;;7.97;3.90;;;10.70;99.90;;;;;;5112617;28;20088;-77
2022/04/15 10:03:22;;;;;;;5.35;3.42;;;10.60;99.90;;;;;;5112543;28;20048;-76
2022/04/15 10:05:58;;;;;;;9.67;4.20;;;10.50;99.90;;;;;;5112901;28;20039;-78
2022/04/15 10:08:27;;;;;;;7.93;3.90;;;10.50;99.90;;;;;;5113825;28;20127;-75
2022/04/15 10:10:55;;;;;;;7.05;3.50;;;10.60;99.90;;;;;;5116275;28;20043;-75
2022/04/15 10:13:26;;;;;;;6.03;3.72;;;10.70;99.90;;;;;;5115539;28;20050;-76
2022/04/15 10:15:54;;;;;;;6.43;3.60;;;11.10;99.90;;;;;;5099450;28;20498;-75
2022/04/15 10:18:24;;;;;;;6.68;3.90;;;11.60;99.90;;;;;;5117593;28;20035;-75
2022/04/15 10:20:51;;;;;;;7.60;4.10;;;11.80;99.90;;;;;;5117110;28;20044;-77
2022/04/15 10:23:19;;;;;;;5.70;4.00;;;11.80;99.90;;;;;;5099381;28;20051;-76
2022/04/15 10:25:46;;;;;;;10.13;3.83;;;11.70;99.90;;;;;;5117596;28;20118;-77
2022/04/15 10:28:17;;;;;;;7.60;3.85;;;11.70;99.90;;;;;;5115344;28;20036;-75
2022/04/15 10:31:04;;;;;;;6.25;4.22;;;11.60;99.90;;;;;;5117434;28;20046;-76
2022/04/15 10:33:32;;;;;;;10.10;3.50;;;11.60;99.90;;;;;;5116503;28;20075;-76
2022/04/15 10:36:09;;;;;;;6.85;4.43;;;11.60;99.90;;;;;;5116153;28;20043;-76
2022/04/15 10:38:35;;;;;;;7.45;4.60;;;11.60;99.90;;;;;;5115450;28;20449;-75
2022/04/15 10:41:16;;;;;;;7.47;3.72;;;11.70;99.90;;;;;;5115239;28;20041;-76
2022/04/15 10:43:58;;;;;;;10.43;3.95;;;11.90;99.90;;;;;;5114600;28;20502;-75
2022/04/15 10:46:31;;;;;;;8.40;3.75;;;12.00;99.90;;;;;;5098219;28;20043;-75
2022/04/15 10:48:58;;;;;;;6.18;4.10;;;12.00;99.90;;;;;;5114740;28;20457;-76
2022/04/15 10:51:29;;;;;;;6.70;4.55;;;12.00;99.90;;;;;;5115526;28;20538;-77
2022/04/15 10:53:55;;;;;;;7.95;4.30;;;12.00;99.90;;;;;;5095184;28;20079;-76
2022/04/15 10:56:24;;;;;;;9.50;4.47;;;12.10;99.90;;;;;;5095600;28;20048;-75
2022/04/15 11:01:51;;;;;;;9.38;5.15;;;11.70;99.90;;;;;;5103284;28;20052;-75
2022/04/15 11:04:25;;;;;;;9.52;4.97;;;11.60;99.90;;;;;;5115356;28;20047;-76
2022/04/15 11:06:53;;;;;;;6.43;4.55;;;11.80;99.90;;;;;;5115750;28;20433;-75
2022/04/15 11:09:26;;;;;;;6.63;3.33;;;11.90;99.90;;;;;;5114324;28;20089;-76
2022/04/15 11:11:53;;;;;;;7.20;4.45;;;11.90;99.90;;;;;;5115558;28;20083;-76
2022/04/15 11:14:33;;;;;;;8.82;4.45;;;11.90;99.90;;;;;;5097694;28;20055;-75
2022/04/15 11:16:59;;;;;;;5.70;3.90;;;12.00;99.90;;;;;;5114826;28;20042;-76
2022/04/15 11:19:26;;;;;;;9.35;4.45;;;12.10;99.90;;;;;;5114428;28;20047;-76
2022/04/15 11:21:53;;;;;;;5.75;4.50;;;12.00;99.90;;;;;;5115681;28;20040;-76
2022/04/15 11:24:26;;;;;;;7.63;5.00;;;11.90;99.90;;;;;;5114441;28;20043;-76
2022/04/15 11:27:01;;;;;;;7.63;4.30;;;12.10;99.90;;;;;;5115155;28;20093;-76
2022/04/15 11:29:32;;;;;;;6.85;4.38;;;12.20;99.90;;;;;;5113942;28;20090;-76
2022/04/15 11:32:00;;;;;;;6.50;4.25;;;12.20;99.90;;;;;;5116399;28;20043;-77
2022/04/15 11:34:26;;;;;;;6.65;4.15;;;12.30;99.90;;;;;;5115725;27;20048;-76
2022/04/15 11:37:01;;;;;;;6.35;3.47;;;12.20;99.90;;;;;;5114148;28;20046;-78
2022/04/15 11:39:28;;;;;;;8.27;3.47;;;12.10;99.90;;;;;;5113926;28;20047;-76
2022/04/15 11:41:59;;;;;;;6.38;3.47;;;12.00;99.90;;;;;;5114447;28;20542;-76
2022/04/15 11:44:32;;;;;;;6.00;3.70;;;12.10;99.90;;;;;;5113758;28;20394;-77
2022/04/15 11:47:18;;;;;;;6.93;4.20;;;12.10;99.90;;;;;;5113664;28;20047;-76
2022/04/15 11:49:46;;;;;;;8.25;4.15;;;12.00;99.90;;;;;;5105967;28;20126;-76
2022/04/15 11:52:24;;;;;;;6.47;4.20;;;12.00;99.90;;;;;;5114700;28;20055;-77
2022/04/15 11:54:50;;;;;;;6.85;3.90;;;11.80;99.90;;;;;;5115829;27;20075;-76
2022/04/15 11:57:15;;;;;;;10.18;4.65;;;11.80;99.90;;;;;;5113884;28;20085;-76
2022/04/15 11:59:48;;;;;;;9.90;4.47;;;11.80;99.90;;;;;;5113496;28;20048;-76
2022/04/15 12:02:17;;;;;;;7.47;3.67;;;11.90;99.90;;;;;;5096896;28;20093;-76
2022/04/15 12:04:58;;;;;;;12.10;4.85;;;11.80;99.90;;;;;;5113568;28;20119;-76
2022/04/15 12:07:25;;;;;;;8.45;4.82;;;11.80;99.90;;;;;;5113683;28;20043;-76
2022/04/15 12:09:52;;;;;;;10.35;4.20;;;11.60;99.90;;;;;;5114150;28;20092;-76
2022/04/15 12:12:20;;;;;;;7.72;4.78;;;11.50;99.90;;;;;;5113668;28;20046;-76
2022/04/15 12:14:53;;;;;;;6.93;4.47;;;11.50;99.90;;;;;;5115165;28;20382;-76
2022/04/15 12:17:20;;;;;;;9.48;4.05;;;11.50;99.90;;;;;;5114143;28;20356;-76
2022/04/15 12:19:47;;;;;;;6.80;4.68;;;11.60;99.90;;;;;;5113366;28;20043;-76
2022/04/15 12:22:14;;;;;;;6.03;3.85;;;11.60;99.90;;;;;;5113791;28;20056;-76
2022/04/15 12:24:39;;;;;;;7.68;4.00;;;11.60;99.90;;;;;;5113755;28;20048;-76
2022/04/15 12:27:05;;;;;;;12.25;4.82;;;11.50;99.90;;;;;;5114165;28;20501;-76
2022/04/15 12:32:23;;;;;;;7.03;4.00;;;11.40;99.90;;;;;;5112316;28;20555;-76
2022/04/15 12:34:54;;;;;;;9.27;5.43;;;11.30;99.90;;;;;;5112822;28;20054;-76
2022/04/15 12:37:39;;;;;;;8.77;4.05;;;11.30;99.90;;;;;;5114680;28;20069;-76
2022/04/15 12:40:14;;;;;;;7.07;4.25;;;11.30;99.90;;;;;;5094486;28;20497;-76
2022/04/15 12:42:41;;;;;;;;;;;11.20;99.90;;;;;;5115099;28;20083;-76
2022/04/15 12:45:16;;;;;;;10.07;4.95;;;11.20;99.90;;;;;;5112334;28;19930;-76
2022/04/15 12:47:57;;;;;;;7.85;5.18;;;11.20;99.90;;;;;;5112473;28;20075;-76
2022/04/15 12:50:25;;;;;;;10.70;5.72;;;11.10;99.90;;;;;;5113058;28;20047;-77
2022/04/15 12:52:55;;;;;;;12.50;5.38;;;11.00;99.90;;;;;;5114309;28;20059;-77
2022/04/15 12:55:28;;;;;;;13.00;5.88;;;10.90;99.90;;;;;;5112715;28;20035;-77
2022/04/15 12:57:54;;;;;;;10.38;4.95;;;11.00;99.90;;;;;;5112923;28;20040;-76